sensor_id;sensor_type;location;lat;lon;timestamp;temperature;humidity
17669;DHT22;8953;48.694;8.940;2022-07-01T00:01:33;13.70;99.90
17669;DHT22;8953;48.694;8.940;2022-07-01T00:04:01;13.70;99.90
17669;DHT22;8953;48.694;8.940;2022-07-01T00:06:28;13.60;99.90
17669;DHT22;8953;48.694;8.940;2022-07-01T00:08:56;13.60;99.90
17669;DHT22;8953;48.694;8.940;2022-07-01T00:11:23;13.60;99.90
17669;DHT22;8953;48.694;8.940;2022-07-01T00:13:50;13.60;99.90
17669;DHT22;8953;48.694;8.940;2022-07-01T00:16:17;13.50;99.90
17669;DHT22;8953;48.694;8.940;2022-07-01T00:18:44;13.60;99.90
17669;DHT22;8953;48.694;8.940;2022-07-01T00:21:13;13.60;99.90
17669;DHT22;8953;48.694;8.940;2022-07-01T00:23:40;13.50;99.90
17669;DHT22;8953;48.694;8.940;2022-07-01T00:26:07;13.50;99.90
17669;DHT22;8953;48.694;8.940;2022-07-01T00:28:35;13.50;99.90
17669;DHT22;8953;48.694;8.940;2022-07-01T00:31:02;13.50;99.90
17669;DHT22;8953;48.694;8.940;2022-07-01T00:33:29;13.50;99.90
17669;DHT22;8953;48.694;8.940;2022-07-01T00:35:58;13.40;99.90
17669;DHT22;8953;48.694;8.940;2022-07-01T00:38:27;13.40;99.90
17669;DHT22;8953;48.694;8.940;2022-07-01T00:40:54;13.30;99.90
17669;DHT22;8953;48.694;8.940;2022-07-01T00:43:22;13.40;99.90
17669;DHT22;8953;48.694;8.940;2022-07-01T00:45:50;13.30;99.90
17669;DHT22;8953;48.694;8.940;2022-07-01T00:48:19;13.40;99.90
17669;DHT22;8953;48.694;8.940;2022-07-01T00:50:46;13.40;99.90
17669;DHT22;8953;48.694;8.940;2022-07-01T00:53:14;13.40;99.90
17669;DHT22;8953;48.694;8.940;2022-07-01T00:55:43;13.40;99.90
17669;DHT22;8953;48.694;8.940;2022-07-01T00:58:10;13.30;99.90
17669;DHT22;8953;48.694;8.940;2022-07-01T01:00:38;13.30;99.90
17669;DHT22;8953;48.694;8.940;2022-07-01T01:03:05;13.30;99.90
17669;DHT22;8953;48.694;8.940;2022-07-01T01:05:33;13.30;99.90
17669;DHT22;8953;48.694;8.940;2022-07-01T01:08:01;13.30;99.90
17669;DHT22;8953;48.694;8.940;2022-07-01T01:10:28;13.30;99.90
17669;DHT22;8953;48.694;8.940;2022-07-01T01:12:57;13.30;99.90
17669;DHT22;8953;48.694;8.940;2022-07-01T01:15:25;13.40;99.90
17669;DHT22;8953;48.694;8.940;2022-07-01T01:17:52;13.40;99.90
17669;DHT22;8953;48.694;8.940;2022-07-01T01:20:21;13.40;99.90
17669;DHT22;8953;48.694;8.940;2022-07-01T01:22:50;13.40;99.90
17669;DHT22;8953;48.694;8.940;2022-07-01T01:25:17;13.40;99.90
17669;DHT22;8953;48.694;8.940;2022-07-01T01:27:45;13.40;99.90
17669;DHT22;8953;48.694;8.940;2022-07-01T01:30:12;13.40;99.90
17669;DHT22;8953;48.694;8.940;2022-07-01T01:35:16;13.40;99.90
17669;DHT22;8953;48.694;8.940;2022-07-01T01:37:43;13.50;99.90
17669;DHT22;8953;48.694;8.940;2022-07-01T01:40:13;13.40;99.90
17669;DHT22;8953;48.694;8.940;2022-07-01T01:42:40;13.40;99.90
17669;DHT22;8953;48.694;8.940;2022-07-01T01:45:09;13.40;99.90
17669;DHT22;8953;48.694;8.940;2022-07-01T01:47:36;13.40;99.90
17669;DHT22;8953;48.694;8.940;2022-07-01T01:50:05;13.40;99.90
17669;DHT22;8953;48.694;8.940;2022-07-01T01:52:32;13.40;99.90
17669;DHT22;8953;48.694;8.940;2022-07-01T01:54:59;13.40;99.90
17669;DHT22;8953;48.694;8.940;2022-07-01T01:57:28;13.40;99.90
17669;DHT22;8953;48.694;8.940;2022-07-01T01:59:55;13.40;99.90
17669;DHT22;8953;48.694;8.940;2022-07-01T02:02:22;13.40;99.90
17669;DHT22;8953;48.694;8.940;2022-07-01T02:04:49;13.30;99.90
17669;DHT22;8953;48.694;8.940;2022-07-01T02:07:16;13.30;99.90
17669;DHT22;8953;48.694;8.940;2022-07-01T02:09:44;13.30;99.90
17669;DHT22;8953;48.694;8.940;2022-07-01T02:12:11;13.30;99.90
17669;DHT22;8953;48.694;8.940;2022-07-01T02:14:39;13.30;99.90
17669;DHT22;8953;48.694;8.940;2022-07-01T02:17:06;13.20;99.90
17669;DHT22;8953;48.694;8.940;2022-07-01T02:19:34;13.20;99.90
17669;DHT22;8953;48.694;8.940;2022-07-01T02:22:01;13.20;99.90
17669;DHT22;8953;48.694;8.940;2022-07-01T02:24:31;13.20;99.90
17669;DHT22;8953;48.694;8.940;2022-07-01T02:26:58;13.10;99.90
17669;DHT22;8953;48.694;8.940;2022-07-01T02:29:25;13.10;99.90
17669;DHT22;8953;48.694;8.940;2022-07-01T02:31:54;13.10;99.90
17669;DHT22;8953;48.694;8.940;2022-07-01T02:34:21;13.00;99.90
17669;DHT22;8953;48.694;8.940;2022-07-01T02:36:48;13.10;99.90
17669;DHT22;8953;48.694;8.940;2022-07-01T02:39:15;13.00;99.90
17669;DHT22;8953;48.694;8.940;2022-07-01T02:41:43;13.00;99.90
17669;DHT22;8953;48.694;8.940;2022-07-01T02:44:28;13.00;99.90
17669;DHT22;8953;48.694;8.940;2022-07-01T02:46:57;13.00;99.90
17669;DHT22;8953;48.694;8.940;2022-07-01T02:49:24;12.90;99.90
17669;DHT22;8953;48.694;8.940;2022-07-01T02:51:51;12.90;99.90
17669;DHT22;8953;48.694;8.940;2022-07-01T02:54:18;12.90;99.90
17669;DHT22;8953;48.694;8.940;2022-07-01T02:56:45;12.90;99.90
17669;DHT22;8953;48.694;8.940;2022-07-01T02:59:12;12.90;99.90
17669;DHT22;8953;48.694;8.940;2022-07-01T03:01:39;12.90;99.90
17669;DHT22;8953;48.694;8.940;2022-07-01T03:04:08;12.90;99.90
17669;DHT22;8953;48.694;8.940;2022-07-01T03:06:35;12.90;99.90
17669;DHT22;8953;48.694;8.940;2022-07-01T03:09:02;12.90;99.90
17669;DHT22;8953;48.694;8.940;2022-07-01T03:11:29;12.90;99.90
17669;DHT22;8953;48.694;8.940;2022-07-01T03:13:56;12.80;99.90
17669;DHT22;8953;48.694;8.940;2022-07-01T03:16:24;12.90;99.90
17669;DHT22;8953;48.694;8.940;2022-07-01T03:18:51;12.80;99.90
17669;DHT22;8953;48.694;8.940;2022-07-01T03:21:19;12.80;99.90
17669;DHT22;8953;48.694;8.940;2022-07-01T03:23:46;12.80;99.90
17669;DHT22;8953;48.694;8.940;2022-07-01T03:26:13;12.80;99.90
17669;DHT22;8953;48.694;8.940;2022-07-01T03:28:41;12.80;99.90
17669;DHT22;8953;48.694;8.940;2022-07-01T03:31:08;12.80;99.90
17669;DHT22;8953;48.694;8.940;2022-07-01T03:33:35;12.80;99.90
17669;DHT22;8953;48.694;8.940;2022-07-01T03:36:03;12.80;99.90
17669;DHT22;8953;48.694;8.940;2022-07-01T03:38:31;12.80;99.90
17669;DHT22;8953;48.694;8.940;2022-07-01T03:40:58;12.80;99.90
17669;DHT22;8953;48.694;8.940;2022-07-01T03:43:25;12.80;99.90
17669;DHT22;8953;48.694;8.940;2022-07-01T03:45:52;12.80;99.90
17669;DHT22;8953;48.694;8.940;2022-07-01T03:48:19;12.80;99.90
17669;DHT22;8953;48.694;8.940;2022-07-01T03:50:47;12.80;99.90
17669;DHT22;8953;48.694;8.940;2022-07-01T03:53:14;12.90;99.90
17669;DHT22;8953;48.694;8.940;2022-07-01T03:56:00;12.90;99.90
17669;DHT22;8953;48.694;8.940;2022-07-01T03:58:27;12.90;99.90
17669;DHT22;8953;48.694;8.940;2022-07-01T04:00:54;12.90;99.90
17669;DHT22;8953;48.694;8.940;2022-07-01T04:03:21;12.90;99.90
17669;DHT22;8953;48.694;8.940;2022-07-01T04:05:48;12.90;99.90
17669;DHT22;8953;48.694;8.940;2022-07-01T04:08:16;12.90;99.90
17669;DHT22;8953;48.694;8.940;2022-07-01T04:10:43;12.90;99.90
17669;DHT22;8953;48.694;8.940;2022-07-01T04:13:11;12.90;99.90
17669;DHT22;8953;48.694;8.940;2022-07-01T04:15:39;12.90;99.90
17669;DHT22;8953;48.694;8.940;2022-07-01T04:18:06;12.90;99.90
17669;DHT22;8953;48.694;8.940;2022-07-01T04:20:33;12.90;99.90
17669;DHT22;8953;48.694;8.940;2022-07-01T04:23:01;13.00;99.90
17669;DHT22;8953;48.694;8.940;2022-07-01T04:25:27;13.00;99.90
17669;DHT22;8953;48.694;8.940;2022-07-01T04:27:55;13.00;99.90
17669;DHT22;8953;48.694;8.940;2022-07-01T04:30:24;13.10;99.90
17669;DHT22;8953;48.694;8.940;2022-07-01T04:32:51;13.10;99.90
17669;DHT22;8953;48.694;8.940;2022-07-01T04:35:18;13.10;99.90
17669;DHT22;8953;48.694;8.940;2022-07-01T04:37:45;13.10;99.90
17669;DHT22;8953;48.694;8.940;2022-07-01T04:40:12;13.10;99.90
17669;DHT22;8953;48.694;8.940;2022-07-01T04:42:40;13.10;99.90
17669;DHT22;8953;48.694;8.940;2022-07-01T04:45:06;13.10;99.90
17669;DHT22;8953;48.694;8.940;2022-07-01T04:47:37;13.10;99.90
17669;DHT22;8953;48.694;8.940;2022-07-01T04:50:06;13.20;99.90
17669;DHT22;8953;48.694;8.940;2022-07-01T04:52:33;13.10;99.90
17669;DHT22;8953;48.694;8.940;2022-07-01T04:55:00;13.10;99.90
17669;DHT22;8953;48.694;8.940;2022-07-01T04:57:28;13.10;99.90
17669;DHT22;8953;48.694;8.940;2022-07-01T04:59:55;13.10;99.90
17669;DHT22;8953;48.694;8.940;2022-07-01T05:02:22;13.10;99.90
17669;DHT22;8953;48.694;8.940;2022-07-01T05:04:51;13.00;99.90
17669;DHT22;8953;48.694;8.940;2022-07-01T05:07:19;13.00;99.90
17669;DHT22;8953;48.694;8.940;2022-07-01T05:09:56;13.00;99.90
17669;DHT22;8953;48.694;8.940;2022-07-01T05:12:24;13.00;99.90
17669;DHT22;8953;48.694;8.940;2022-07-01T05:14:51;13.00;99.90
17669;DHT22;8953;48.694;8.940;2022-07-01T05:17:19;13.00;99.90
17669;DHT22;8953;48.694;8.940;2022-07-01T05:20:08;12.90;99.90
17669;DHT22;8953;48.694;8.940;2022-07-01T05:22:53;12.90;99.90
17669;DHT22;8953;48.694;8.940;2022-07-01T05:25:20;12.90;99.90
17669;DHT22;8953;48.694;8.940;2022-07-01T05:27:47;12.80;99.90
17669;DHT22;8953;48.694;8.940;2022-07-01T05:30:14;12.80;99.90
17669;DHT22;8953;48.694;8.940;2022-07-01T05:32:41;12.90;99.90
17669;DHT22;8953;48.694;8.940;2022-07-01T05:35:10;12.90;99.90
17669;DHT22;8953;48.694;8.940;2022-07-01T05:37:38;12.90;99.90
17669;DHT22;8953;48.694;8.940;2022-07-01T05:40:06;12.90;99.90
17669;DHT22;8953;48.694;8.940;2022-07-01T05:42:34;12.90;99.90
17669;DHT22;8953;48.694;8.940;2022-07-01T05:45:01;13.00;99.90
17669;DHT22;8953;48.694;8.940;2022-07-01T05:47:28;13.00;99.90
17669;DHT22;8953;48.694;8.940;2022-07-01T05:49:55;13.00;99.90
17669;DHT22;8953;48.694;8.940;2022-07-01T05:52:24;13.00;99.90
17669;DHT22;8953;48.694;8.940;2022-07-01T05:54:51;13.00;99.90
17669;DHT22;8953;48.694;8.940;2022-07-01T05:57:18;13.00;99.90
17669;DHT22;8953;48.694;8.940;2022-07-01T05:59:45;13.00;99.90
17669;DHT22;8953;48.694;8.940;2022-07-01T06:02:12;13.00;99.90
17669;DHT22;8953;48.694;8.940;2022-07-01T06:04:39;13.00;99.90
17669;DHT22;8953;48.694;8.940;2022-07-01T06:07:09;13.00;99.90
17669;DHT22;8953;48.694;8.940;2022-07-01T06:09:38;13.00;99.90
17669;DHT22;8953;48.694;8.940;2022-07-01T06:12:06;13.00;99.90
17669;DHT22;8953;48.694;8.940;2022-07-01T06:14:33;13.00;99.90
17669;DHT22;8953;48.694;8.940;2022-07-01T06:17:02;13.10;99.90
17669;DHT22;8953;48.694;8.940;2022-07-01T06:19:29;13.10;99.90
17669;DHT22;8953;48.694;8.940;2022-07-01T06:21:56;13.20;99.90
17669;DHT22;8953;48.694;8.940;2022-07-01T06:24:23;13.10;99.90
17669;DHT22;8953;48.694;8.940;2022-07-01T06:26:52;13.10;99.90
17669;DHT22;8953;48.694;8.940;2022-07-01T06:29:19;13.20;99.90
17669;DHT22;8953;48.694;8.940;2022-07-01T06:31:47;13.20;99.90
17669;DHT22;8953;48.694;8.940;2022-07-01T06:34:14;13.20;99.90
17669;DHT22;8953;48.694;8.940;2022-07-01T06:36:41;13.20;99.90
17669;DHT22;8953;48.694;8.940;2022-07-01T06:39:08;13.20;99.90
17669;DHT22;8953;48.694;8.940;2022-07-01T06:41:35;13.20;99.90
17669;DHT22;8953;48.694;8.940;2022-07-01T06:44:05;13.20;99.90
17669;DHT22;8953;48.694;8.940;2022-07-01T06:46:33;13.20;99.90
17669;DHT22;8953;48.694;8.940;2022-07-01T06:49:01;13.30;99.90
17669;DHT22;8953;48.694;8.940;2022-07-01T06:51:29;13.30;99.90
17669;DHT22;8953;48.694;8.940;2022-07-01T06:53:56;13.30;99.90
17669;DHT22;8953;48.694;8.940;2022-07-01T06:56:23;13.40;99.90
17669;DHT22;8953;48.694;8.940;2022-07-01T06:58:51;13.50;99.90
17669;DHT22;8953;48.694;8.940;2022-07-01T07:01:19;13.60;99.90
17669;DHT22;8953;48.694;8.940;2022-07-01T07:03:46;13.70;99.90
17669;DHT22;8953;48.694;8.940;2022-07-01T07:06:14;13.70;99.90
17669;DHT22;8953;48.694;8.940;2022-07-01T07:08:41;13.70;99.90
17669;DHT22;8953;48.694;8.940;2022-07-01T07:11:08;13.70;99.90
17669;DHT22;8953;48.694;8.940;2022-07-01T07:13:35;13.70;99.90
17669;DHT22;8953;48.694;8.940;2022-07-01T07:16:03;13.60;99.90
17669;DHT22;8953;48.694;8.940;2022-07-01T07:18:31;13.50;99.90
17669;DHT22;8953;48.694;8.940;2022-07-01T07:20:58;13.40;99.90
17669;DHT22;8953;48.694;8.940;2022-07-01T07:23:26;13.40;99.90
17669;DHT22;8953;48.694;8.940;2022-07-01T07:25:53;13.40;99.90
17669;DHT22;8953;48.694;8.940;2022-07-01T07:28:21;13.40;99.90
17669;DHT22;8953;48.694;8.940;2022-07-01T07:30:48;13.40;99.90
17669;DHT22;8953;48.694;8.940;2022-07-01T07:33:15;13.40;99.90
17669;DHT22;8953;48.694;8.940;2022-07-01T07:35:44;13.40;99.90
17669;DHT22;8953;48.694;8.940;2022-07-01T07:38:11;13.40;99.90
17669;DHT22;8953;48.694;8.940;2022-07-01T07:40:38;13.40;99.90
17669;DHT22;8953;48.694;8.940;2022-07-01T07:43:05;13.50;99.90
17669;DHT22;8953;48.694;8.940;2022-07-01T07:45:33;13.50;99.90
17669;DHT22;8953;48.694;8.940;2022-07-01T07:48:00;13.40;99.90
17669;DHT22;8953;48.694;8.940;2022-07-01T07:50:28;13.50;99.90
17669;DHT22;8953;48.694;8.940;2022-07-01T07:52:57;13.50;99.90
17669;DHT22;8953;48.694;8.940;2022-07-01T07:55:24;13.50;99.90
17669;DHT22;8953;48.694;8.940;2022-07-01T07:57:52;13.60;99.90
17669;DHT22;8953;48.694;8.940;2022-07-01T08:00:20;13.60;99.90
17669;DHT22;8953;48.694;8.940;2022-07-01T08:02:47;13.70;99.90
17669;DHT22;8953;48.694;8.940;2022-07-01T08:05:15;13.70;99.90
17669;DHT22;8953;48.694;8.940;2022-07-01T08:07:42;13.70;99.90
17669;DHT22;8953;48.694;8.940;2022-07-01T08:10:12;13.60;99.90
17669;DHT22;8953;48.694;8.940;2022-07-01T08:12:40;13.50;99.90
17669;DHT22;8953;48.694;8.940;2022-07-01T08:15:08;13.40;99.90
17669;DHT22;8953;48.694;8.940;2022-07-01T08:17:35;13.50;99.90
17669;DHT22;8953;48.694;8.940;2022-07-01T08:20:03;13.50;99.90
17669;DHT22;8953;48.694;8.940;2022-07-01T08:22:31;13.50;99.90
17669;DHT22;8953;48.694;8.940;2022-07-01T08:24:59;13.50;99.90
17669;DHT22;8953;48.694;8.940;2022-07-01T08:27:27;13.50;99.90
17669;DHT22;8953;48.694;8.940;2022-07-01T08:29:54;13.60;99.90
17669;DHT22;8953;48.694;8.940;2022-07-01T08:32:22;13.60;99.90
17669;DHT22;8953;48.694;8.940;2022-07-01T08:34:51;13.60;99.90
17669;DHT22;8953;48.694;8.940;2022-07-01T08:37:18;13.50;99.90
17669;DHT22;8953;48.694;8.940;2022-07-01T08:39:45;13.60;99.90
17669;DHT22;8953;48.694;8.940;2022-07-01T08:42:13;13.70;99.90
17669;DHT22;8953;48.694;8.940;2022-07-01T08:44:41;13.70;99.90
17669;DHT22;8953;48.694;8.940;2022-07-01T08:47:11;13.80;99.90
17669;DHT22;8953;48.694;8.940;2022-07-01T08:49:40;13.80;99.90
17669;DHT22;8953;48.694;8.940;2022-07-01T08:52:07;13.80;99.90
17669;DHT22;8953;48.694;8.940;2022-07-01T08:54:35;13.80;99.90
17669;DHT22;8953;48.694;8.940;2022-07-01T08:57:03;13.90;99.90
17669;DHT22;8953;48.694;8.940;2022-07-01T08:59:31;13.90;99.90
17669;DHT22;8953;48.694;8.940;2022-07-01T09:02:01;13.90;99.90
17669;DHT22;8953;48.694;8.940;2022-07-01T09:04:29;13.80;99.90
17669;DHT22;8953;48.694;8.940;2022-07-01T09:07:02;13.80;99.90
17669;DHT22;8953;48.694;8.940;2022-07-01T09:09:34;13.80;99.90
17669;DHT22;8953;48.694;8.940;2022-07-01T09:12:02;13.90;99.90
17669;DHT22;8953;48.694;8.940;2022-07-01T09:14:31;14.00;99.90
17669;DHT22;8953;48.694;8.940;2022-07-01T09:17:01;14.10;99.90
17669;DHT22;8953;48.694;8.940;2022-07-01T09:19:31;14.20;99.90
17669;DHT22;8953;48.694;8.940;2022-07-01T09:22:00;14.20;99.90
17669;DHT22;8953;48.694;8.940;2022-07-01T09:24:30;14.10;99.90
17669;DHT22;8953;48.694;8.940;2022-07-01T09:26:59;14.10;99.90
17669;DHT22;8953;48.694;8.940;2022-07-01T09:29:28;14.10;99.90
17669;DHT22;8953;48.694;8.940;2022-07-01T09:31:57;14.10;99.90
17669;DHT22;8953;48.694;8.940;2022-07-01T09:34:26;14.10;99.90
17669;DHT22;8953;48.694;8.940;2022-07-01T09:36:54;14.20;99.90
17669;DHT22;8953;48.694;8.940;2022-07-01T09:39:22;14.10;99.90
17669;DHT22;8953;48.694;8.940;2022-07-01T09:41:49;14.30;99.90
17669;DHT22;8953;48.694;8.940;2022-07-01T09:44:20;14.40;99.90
17669;DHT22;8953;48.694;8.940;2022-07-01T09:46:54;14.30;99.90
17669;DHT22;8953;48.694;8.940;2022-07-01T09:49:23;14.30;99.90
17669;DHT22;8953;48.694;8.940;2022-07-01T09:51:51;14.30;99.90
17669;DHT22;8953;48.694;8.940;2022-07-01T09:54:19;14.40;99.90
17669;DHT22;8953;48.694;8.940;2022-07-01T09:56:46;14.50;99.90
17669;DHT22;8953;48.694;8.940;2022-07-01T09:59:14;14.50;99.90
17669;DHT22;8953;48.694;8.940;2022-07-01T10:01:44;14.50;99.90
17669;DHT22;8953;48.694;8.940;2022-07-01T10:04:12;14.70;99.90
17669;DHT22;8953;48.694;8.940;2022-07-01T10:07:01;14.90;99.90
17669;DHT22;8953;48.694;8.940;2022-07-01T10:09:47;15.30;99.90
17669;DHT22;8953;48.694;8.940;2022-07-01T10:12:36;15.50;99.90
17669;DHT22;8953;48.694;8.940;2022-07-01T10:15:08;15.80;99.90
17669;DHT22;8953;48.694;8.940;2022-07-01T10:17:37;16.00;99.90
17669;DHT22;8953;48.694;8.940;2022-07-01T10:20:10;16.20;99.90
17669;DHT22;8953;48.694;8.940;2022-07-01T10:22:40;16.50;99.90
17669;DHT22;8953;48.694;8.940;2022-07-01T10:25:33;16.90;99.90
17669;DHT22;8953;48.694;8.940;2022-07-01T10:28:26;17.30;99.90
17669;DHT22;8953;48.694;8.940;2022-07-01T10:30:59;17.50;99.90
17669;DHT22;8953;48.694;8.940;2022-07-01T10:33:32;17.60;99.90
17669;DHT22;8953;48.694;8.940;2022-07-01T10:36:14;17.50;99.90
17669;DHT22;8953;48.694;8.940;2022-07-01T10:39:09;17.90;99.90
17669;DHT22;8953;48.694;8.940;2022-07-01T10:41:38;18.20;99.90
17669;DHT22;8953;48.694;8.940;2022-07-01T10:44:07;19.00;99.90
17669;DHT22;8953;48.694;8.940;2022-07-01T10:46:38;19.90;99.90
17669;DHT22;8953;48.694;8.940;2022-07-01T10:49:07;20.50;99.90
17669;DHT22;8953;48.694;8.940;2022-07-01T10:51:52;21.10;99.90
17669;DHT22;8953;48.694;8.940;2022-07-01T10:54:50;22.00;99.90
17669;DHT22;8953;48.694;8.940;2022-07-01T10:57:26;22.40;99.90
17669;DHT22;8953;48.694;8.940;2022-07-01T10:59:56;22.00;99.90
17669;DHT22;8953;48.694;8.940;2022-07-01T11:02:25;21.80;99.90
17669;DHT22;8953;48.694;8.940;2022-07-01T11:04:54;21.10;99.90
17669;DHT22;8953;48.694;8.940;2022-07-01T11:07:24;21.00;99.90
17669;DHT22;8953;48.694;8.940;2022-07-01T11:09:53;20.50;99.90
17669;DHT22;8953;48.694;8.940;2022-07-01T11:12:21;20.40;99.90
17669;DHT22;8953;48.694;8.940;2022-07-01T11:14:49;20.70;99.90
17669;DHT22;8953;48.694;8.940;2022-07-01T11:17:18;21.10;99.90
17669;DHT22;8953;48.694;8.940;2022-07-01T11:19:48;21.10;99.90
17669;DHT22;8953;48.694;8.940;2022-07-01T11:22:18;20.80;99.90
17669;DHT22;8953;48.694;8.940;2022-07-01T11:24:46;20.40;99.90
17669;DHT22;8953;48.694;8.940;2022-07-01T11:27:19;19.90;99.90
17669;DHT22;8953;48.694;8.940;2022-07-01T11:29:51;19.70;99.90
17669;DHT22;8953;48.694;8.940;2022-07-01T11:32:24;19.90;99.90
17669;DHT22;8953;48.694;8.940;2022-07-01T11:34:51;19.70;99.90
17669;DHT22;8953;48.694;8.940;2022-07-01T11:37:19;19.70;99.90
17669;DHT22;8953;48.694;8.940;2022-07-01T11:40:07;19.70;99.90
17669;DHT22;8953;48.694;8.940;2022-07-01T11:42:36;19.90;99.90
17669;DHT22;8953;48.694;8.940;2022-07-01T11:45:05;21.00;99.90
17669;DHT22;8953;48.694;8.940;2022-07-01T11:47:32;22.00;99.90
17669;DHT22;8953;48.694;8.940;2022-07-01T11:50:02;22.20;99.90
17669;DHT22;8953;48.694;8.940;2022-07-01T11:52:30;22.10;99.90
17669;DHT22;8953;48.694;8.940;2022-07-01T11:54:58;22.00;99.90
17669;DHT22;8953;48.694;8.940;2022-07-01T11:57:27;21.90;99.90
17669;DHT22;8953;48.694;8.940;2022-07-01T11:59:56;21.50;99.90
17669;DHT22;8953;48.694;8.940;2022-07-01T12:02:24;21.50;99.90
17669;DHT22;8953;48.694;8.940;2022-07-01T12:04:52;21.60;99.90
17669;DHT22;8953;48.694;8.940;2022-07-01T12:07:20;21.10;99.90
17669;DHT22;8953;48.694;8.940;2022-07-01T12:09:48;20.90;99.90
17669;DHT22;8953;48.694;8.940;2022-07-01T12:12:16;21.00;99.90
17669;DHT22;8953;48.694;8.940;2022-07-01T12:14:50;20.90;99.90
17669;DHT22;8953;48.694;8.940;2022-07-01T12:17:20;20.50;99.90
17669;DHT22;8953;48.694;8.940;2022-07-01T12:19:49;20.30;99.90
17669;DHT22;8953;48.694;8.940;2022-07-01T12:22:18;20.60;99.90
17669;DHT22;8953;48.694;8.940;2022-07-01T12:24:46;20.70;99.90
17669;DHT22;8953;48.694;8.940;2022-07-01T12:27:14;20.90;99.90
17669;DHT22;8953;48.694;8.940;2022-07-01T12:29:53;21.00;99.90
17669;DHT22;8953;48.694;8.940;2022-07-01T12:32:23;21.00;99.90
17669;DHT22;8953;48.694;8.940;2022-07-01T12:34:52;21.30;99.90
17669;DHT22;8953;48.694;8.940;2022-07-01T12:37:25;21.40;99.90
17669;DHT22;8953;48.694;8.940;2022-07-01T12:39:55;21.50;99.90
17669;DHT22;8953;48.694;8.940;2022-07-01T12:42:26;22.10;99.90
17669;DHT22;8953;48.694;8.940;2022-07-01T12:44:54;21.90;99.90
17669;DHT22;8953;48.694;8.940;2022-07-01T12:47:27;22.00;99.90
17669;DHT22;8953;48.694;8.940;2022-07-01T12:50:17;22.20;99.90
17669;DHT22;8953;48.694;8.940;2022-07-01T12:52:58;22.60;99.90
17669;DHT22;8953;48.694;8.940;2022-07-01T12:55:27;22.80;99.90
17669;DHT22;8953;48.694;8.940;2022-07-01T12:57:56;22.70;99.90
17669;DHT22;8953;48.694;8.940;2022-07-01T13:00:25;22.70;99.90
17669;DHT22;8953;48.694;8.940;2022-07-01T13:02:57;22.60;99.90
17669;DHT22;8953;48.694;8.940;2022-07-01T13:05:24;22.90;99.90
17669;DHT22;8953;48.694;8.940;2022-07-01T13:07:52;23.20;99.90
17669;DHT22;8953;48.694;8.940;2022-07-01T13:10:20;23.00;99.90
17669;DHT22;8953;48.694;8.940;2022-07-01T13:12:48;22.90;99.90
17669;DHT22;8953;48.694;8.940;2022-07-01T13:15:17;22.90;99.90
17669;DHT22;8953;48.694;8.940;2022-07-01T13:17:45;22.60;99.90
17669;DHT22;8953;48.694;8.940;2022-07-01T13:20:15;22.50;99.90
17669;DHT22;8953;48.694;8.940;2022-07-01T13:22:43;22.50;99.90
17669;DHT22;8953;48.694;8.940;2022-07-01T13:25:11;22.60;99.90
17669;DHT22;8953;48.694;8.940;2022-07-01T13:27:38;22.00;99.90
17669;DHT22;8953;48.694;8.940;2022-07-01T13:30:08;21.70;99.90
17669;DHT22;8953;48.694;8.940;2022-07-01T13:32:35;21.70;99.90
17669;DHT22;8953;48.694;8.940;2022-07-01T13:35:03;21.60;99.90
17669;DHT22;8953;48.694;8.940;2022-07-01T13:37:31;21.20;99.90
17669;DHT22;8953;48.694;8.940;2022-07-01T13:40:00;21.20;99.90
17669;DHT22;8953;48.694;8.940;2022-07-01T13:42:27;21.20;99.90
17669;DHT22;8953;48.694;8.940;2022-07-01T13:44:54;21.00;99.90
17669;DHT22;8953;48.694;8.940;2022-07-01T13:47:22;20.70;99.90
17669;DHT22;8953;48.694;8.940;2022-07-01T13:49:50;20.50;99.90
17669;DHT22;8953;48.694;8.940;2022-07-01T13:52:17;20.10;99.90
17669;DHT22;8953;48.694;8.940;2022-07-01T13:54:46;20.10;99.90
17669;DHT22;8953;48.694;8.940;2022-07-01T13:57:13;20.30;99.90
17669;DHT22;8953;48.694;8.940;2022-07-01T13:59:40;20.60;99.90
17669;DHT22;8953;48.694;8.940;2022-07-01T14:02:08;21.20;99.90
17669;DHT22;8953;48.694;8.940;2022-07-01T14:04:35;21.50;99.90
17669;DHT22;8953;48.694;8.940;2022-07-01T14:07:03;21.50;99.90
17669;DHT22;8953;48.694;8.940;2022-07-01T14:09:30;21.20;99.90
17669;DHT22;8953;48.694;8.940;2022-07-01T14:12:00;20.50;99.90
17669;DHT22;8953;48.694;8.940;2022-07-01T14:14:27;20.40;99.90
17669;DHT22;8953;48.694;8.940;2022-07-01T14:16:54;20.60;99.90
17669;DHT22;8953;48.694;8.940;2022-07-01T14:19:21;20.80;99.90
17669;DHT22;8953;48.694;8.940;2022-07-01T14:21:48;20.60;99.90
17669;DHT22;8953;48.694;8.940;2022-07-01T14:24:16;20.60;99.90
17669;DHT22;8953;48.694;8.940;2022-07-01T14:26:43;20.40;99.90
17669;DHT22;8953;48.694;8.940;2022-07-01T14:29:11;20.50;99.90
17669;DHT22;8953;48.694;8.940;2022-07-01T14:31:38;20.40;99.90
17669;DHT22;8953;48.694;8.940;2022-07-01T14:34:06;20.20;99.90
17669;DHT22;8953;48.694;8.940;2022-07-01T14:36:33;20.20;99.90
17669;DHT22;8953;48.694;8.940;2022-07-01T14:39:00;20.00;99.90
17669;DHT22;8953;48.694;8.940;2022-07-01T14:41:27;19.90;99.90
17669;DHT22;8953;48.694;8.940;2022-07-01T14:43:54;19.80;99.90
17669;DHT22;8953;48.694;8.940;2022-07-01T14:46:22;19.70;99.90
17669;DHT22;8953;48.694;8.940;2022-07-01T14:48:49;19.80;99.90
17669;DHT22;8953;48.694;8.940;2022-07-01T14:51:17;19.90;99.90
17669;DHT22;8953;48.694;8.940;2022-07-01T14:53:44;19.90;99.90
17669;DHT22;8953;48.694;8.940;2022-07-01T14:56:11;19.90;99.90
17669;DHT22;8953;48.694;8.940;2022-07-01T14:58:38;20.00;99.90
17669;DHT22;8953;48.694;8.940;2022-07-01T15:01:08;20.10;99.90
17669;DHT22;8953;48.694;8.940;2022-07-01T15:03:37;20.20;99.90
17669;DHT22;8953;48.694;8.940;2022-07-01T15:06:05;20.20;99.90
17669;DHT22;8953;48.694;8.940;2022-07-01T15:08:32;20.20;99.90
17669;DHT22;8953;48.694;8.940;2022-07-01T15:10:59;20.30;99.90
17669;DHT22;8953;48.694;8.940;2022-07-01T15:13:29;20.40;99.90
17669;DHT22;8953;48.694;8.940;2022-07-01T15:15:56;20.60;99.90
17669;DHT22;8953;48.694;8.940;2022-07-01T15:18:24;20.70;99.90
17669;DHT22;8953;48.694;8.940;2022-07-01T15:20:53;20.60;99.90
17669;DHT22;8953;48.694;8.940;2022-07-01T15:23:20;20.60;99.90
17669;DHT22;8953;48.694;8.940;2022-07-01T15:25:47;20.70;99.90
17669;DHT22;8953;48.694;8.940;2022-07-01T15:28:18;20.70;99.90
17669;DHT22;8953;48.694;8.940;2022-07-01T15:30:53;20.60;99.90
17669;DHT22;8953;48.694;8.940;2022-07-01T15:33:20;21.00;99.90
17669;DHT22;8953;48.694;8.940;2022-07-01T15:35:47;21.30;99.90
17669;DHT22;8953;48.694;8.940;2022-07-01T15:38:16;21.20;99.90
17669;DHT22;8953;48.694;8.940;2022-07-01T15:40:43;21.10;99.90
17669;DHT22;8953;48.694;8.940;2022-07-01T15:43:13;21.10;99.90
17669;DHT22;8953;48.694;8.940;2022-07-01T15:45:41;21.00;99.90
17669;DHT22;8953;48.694;8.940;2022-07-01T15:48:08;20.80;99.90
17669;DHT22;8953;48.694;8.940;2022-07-01T15:50:37;20.70;99.90
17669;DHT22;8953;48.694;8.940;2022-07-01T15:53:06;20.40;99.90
17669;DHT22;8953;48.694;8.940;2022-07-01T15:55:35;20.30;99.90
17669;DHT22;8953;48.694;8.940;2022-07-01T15:58:03;20.40;99.90